Terminal Aerodrome Forecast
Issued by NWS Jackson, KY

Home | Current Version | Previous Version | Text Only | Print | Product List | Glossary On
Versions: 1 2 3 4 5 6 7 8 9 10 11 12 13 14 15 16
000
FTUS43 KJKL 281201 AAA
TAFLOZ
TAF AMD
KLOZ 281201Z 2812/2912 00000KT 1/4SM FG VV001
      TEMPO 2812/2813 3SM BR BKN005 BKN300
     FM281300 00000KT 3SM BR BKN005 BKN300
     FM281400 VRB03KT P6SM SCT300
     FM281700 VRB03KT P6SM VCTS SCT040CB SCT300
     FM282300 00000KT P6SM SCT040
     FM290500 00000KT 3SM BR SCT040
     FM290900 00000KT 1/2SM FG BKN002=

USA.gov is the U.S. government's official web portal to all federal, state and local government web resources and services.